Pagrindinis puslapis
METAR-TAF:

METAR-TAF

Oro uostai :

Washington, Virdžinija, Jungtinės Amerikos Valstijos

platuma: 38-56-05N, ilguma: 077-26-51W, Aukštis: 95 m

Dabartinis oras

Ataskaita buvo paskelbta 33 minutes, ne 09:52 UTC
Vėjas 7 kt iš Šiaurės/Šiaurės Vakarų
Temperatūra 14°C
Drėgmė 51%
Slėgis 1020 hPa
Matomumas: 16.1 km
Mažai debesys ne aukštis 10000 ft

METAR: KIAD 310952Z 34007KT 10SM FEW100 14/04 A3011 RMK AO2 SLP193 T01440044

Laikas: 06:25 (10:25 UTC)

Prognozė

Ataskaita buvo paskelbta 1 valandą ir 31 minutes, ne 08:54 UTC
Prognozė galioja nuo 31 metu 09 UTC su 01 metu 12 UTC
Vėjas 9 kt iš Šiaurės/Šiaurės Vakarų
Matomumas: 10 km
Mažai debesys ne aukštis 20000 ft
Nuo 31 metu 1400 UTC
Vėjas 10 kt iš Šiaurės/Šiaurės Vakarų su gūsio iki 16 kt
Matomumas: 10 km
Giedras dangus
Nuo 31 metu 2200 UTC
Vėjas 8 kt iš Šiaurės Vakarų
Matomumas: 10 km
Giedras dangus

TAF: KIAD 310854Z 3109/0112 33009KT P6SM FEW200 FM311400 34010G16KT P6SM SKC FM312200 32008KT P6SM SKC

Orai ataskaitas ir orų prognozės (METAR, TAF).

turimą stotys yra geltonos ir raudonos taškus žemėlapyje.

Perkelti pele per norėdami pamatyti stoties vardą.

Tada spustelėkite, norėdami matyti oro stebėjimo ir prognozės.

Norėdami pakeisti žemėlapį: spustelėkite ant žalios mygtukų su juodo kryžiaus žemyn,; žalią mygtuką su brūkšneliu, jei norite nutolinti; arba žalių rodyklių gretimoms žemėlapius.


METAR-TAF: